Time;durP1;ratioP1;P1;durP2;ratioP2;P2;SDS_P1;SDS_P2;PMS_P1;PMS_P2;Temp;Humidity;BMP_temperature;BMP_pressure;BME280_temperature;BME280_humidity;BME280_pressure;Samples;Min_cycle;Max_cycle;Signal;HPM_P1;HPM_P2
2022/06/22 00:02:02;;;;;;;19.60;12.80;;;12.80;99.90;;;;;;5088422;28;20048;-78
2022/06/22 00:04:32;;;;;;;17.77;12.05;;;12.30;99.90;;;;;;5091957;28;20186;-80
2022/06/22 00:07:26;;;;;;;21.98;12.30;;;12.30;99.90;;;;;;5074265;28;20126;-80
2022/06/22 00:10:03;;;;;;;24.70;12.35;;;12.30;99.90;;;;;;5073945;28;20424;-81
2022/06/22 00:15:38;;;;;;;20.20;12.60;;;12.30;99.90;;;;;;5092324;28;20056;-80
2022/06/22 00:18:39;;;;;;;18.63;11.75;;;12.20;99.90;;;;;;5056897;28;20067;-79
2022/06/22 00:21:23;;;;;;;18.08;11.60;;;12.20;99.90;;;;;;5057408;28;20130;-81
2022/06/22 00:23:53;;;;;;;23.80;11.63;;;12.30;99.90;;;;;;5092619;28;20071;-81
2022/06/22 00:26:24;;;;;;;19.20;12.77;;;12.10;99.90;;;;;;5077473;28;20048;-81
2022/06/22 00:29:05;;;;;;;19.35;13.25;;;12.10;99.90;;;;;;5077841;28;20044;-81
2022/06/22 00:31:40;;;;;;;23.88;14.15;;;12.10;99.90;;;;;;5096109;28;20186;-80
2022/06/22 00:34:09;;;;;;;19.52;11.90;;;12.00;99.90;;;;;;5095310;28;20051;-81
2022/06/22 00:36:41;;;;;;;19.50;12.27;;;12.00;99.90;;;;;;5095351;28;20050;-80
2022/06/22 00:39:21;;;;;;;22.48;14.23;;;11.80;99.90;;;;;;5072589;28;20099;-81
2022/06/22 00:42:16;;;;;;;24.50;14.57;;;11.90;99.90;;;;;;5106950;28;20500;-81
2022/06/22 00:44:53;;;;;;;22.83;13.98;;;11.90;99.90;;;;;;5001740;28;20049;-80
2022/06/22 00:47:26;;;;;;;20.52;14.68;;;11.90;99.90;;;;;;5014270;28;20062;-81
2022/06/22 00:49:59;;;;;;;21.52;13.88;;;11.90;99.90;;;;;;5014064;28;20058;-81
2022/06/22 00:52:33;;;;;;;19.67;13.98;;;11.90;99.90;;;;;;5013361;28;20121;-80
2022/06/22 00:54:59;;;;;;;27.92;15.20;;;11.80;99.90;;;;;;4997068;28;20046;-81
2022/06/22 00:57:35;;;;;;;21.10;14.30;;;11.90;99.90;;;;;;4997270;28;20061;-79
2022/06/22 01:00:22;;;;;;;24.52;13.73;;;11.80;99.90;;;;;;5013842;28;20036;-81
2022/06/22 01:02:59;;;;;;;21.08;13.57;;;11.80;99.90;;;;;;4996723;28;20057;-81
2022/06/22 01:05:34;;;;;;;19.63;13.52;;;11.70;99.90;;;;;;5012614;28;20084;-81
2022/06/22 01:08:11;;;;;;;16.73;12.40;;;11.70;99.90;;;;;;4979119;28;20515;-80
2022/06/22 01:10:57;;;;;;;16.63;11.68;;;11.70;99.90;;;;;;5013779;28;20046;-80
2022/06/22 01:13:37;;;;;;;19.48;11.95;;;11.60;99.90;;;;;;5012880;28;20034;-81
2022/06/22 01:16:17;;;;;;;20.85;13.45;;;11.60;99.90;;;;;;5012700;28;20097;-80
2022/06/22 01:19:16;;;;;;;16.92;12.00;;;11.50;99.90;;;;;;4996502;28;20041;-81
2022/06/22 01:21:46;;;;;;;16.70;12.13;;;11.40;99.90;;;;;;5050214;28;20500;-76
2022/06/22 01:24:31;;;;;;;18.95;13.20;;;11.40;99.90;;;;;;5091196;28;20044;-78
2022/06/22 01:27:32;;;;;;;13.00;9.90;;;11.60;99.90;;;;;;5083599;28;20075;-80
2022/06/22 01:30:03;;;;;;;16.38;10.80;;;11.30;99.90;;;;;;5064864;28;20052;-80
2022/06/22 01:32:33;;;;;;;16.52;11.63;;;11.30;99.90;;;;;;5056677;28;20499;-80
2022/06/22 01:35:13;;;;;;;17.27;11.98;;;11.20;99.90;;;;;;5055766;28;20063;-81
2022/06/22 01:37:40;;;;;;;15.73;11.90;;;11.20;99.90;;;;;;5055487;28;20067;-80
2022/06/22 01:40:29;;;;;;;14.70;10.73;;;11.30;99.90;;;;;;5071965;28;20072;-81
2022/06/22 01:43:07;;;;;;;13.82;10.05;;;11.10;99.90;;;;;;5074412;28;20052;-80
2022/06/22 01:45:47;;;;;;;14.60;9.35;;;11.10;99.90;;;;;;5074632;28;20040;-80
2022/06/22 01:48:32;;;;;;;12.48;9.15;;;11.10;99.90;;;;;;5056164;28;20080;-81
2022/06/22 01:51:10;;;;;;;11.73;8.35;;;11.80;99.90;;;;;;5074122;28;20045;-80
2022/06/22 01:54:05;;;;;;;12.93;7.55;;;11.00;99.90;;;;;;5072506;28;20047;-81
2022/06/22 01:57:08;;;;;;;9.48;6.53;;;10.90;99.90;;;;;;5053340;28;20478;-81
2022/06/22 01:59:51;;;;;;;6.07;4.35;;;10.80;99.90;;;;;;5014984;28;20111;-81
2022/06/22 02:02:31;;;;;;;5.88;4.63;;;10.80;99.90;;;;;;5031204;28;20042;-81
2022/06/22 02:05:03;;;;;;;6.00;4.68;;;10.80;99.90;;;;;;5015436;28;20394;-81
2022/06/22 02:07:45;;;;;;;6.78;5.05;;;10.70;99.90;;;;;;5032194;28;20033;-80
2022/06/22 02:10:40;;;;;;;5.40;4.90;;;10.80;99.90;;;;;;5010831;28;20168;-79
2022/06/22 02:13:23;;;;;;;6.68;4.70;;;10.60;99.90;;;;;;5044803;28;20042;-81
2022/06/22 02:15:56;;;;;;;5.97;4.90;;;10.50;99.90;;;;;;5031431;28;20061;-81
2022/06/22 02:18:55;;;;;;;5.30;4.70;;;10.50;99.90;;;;;;5014630;28;20045;-81
2022/06/22 02:21:38;;;;;;;5.28;4.70;;;10.40;99.90;;;;;;4997474;28;20389;-81
2022/06/22 02:24:09;;;;;;;6.10;4.72;;;10.40;99.90;;;;;;5014894;28;20033;-80
2022/06/22 02:26:38;;;;;;;6.15;4.78;;;11.10;99.90;;;;;;5014443;28;20110;-81
2022/06/22 02:29:05;;;;;;;5.85;4.97;;;10.30;99.90;;;;;;5013581;28;20131;-81
2022/06/22 02:31:32;;;;;;;5.50;5.00;;;10.30;99.90;;;;;;5011238;28;20050;-81
2022/06/22 02:33:58;;;;;;;6.25;4.45;;;10.30;99.90;;;;;;4997231;28;20163;-82
2022/06/22 02:36:28;;;;;;;9.07;4.68;;;10.40;99.90;;;;;;5071506;28;20135;-81
2022/06/22 02:38:58;;;;;;;9.77;4.47;;;11.10;99.90;;;;;;5038376;28;20044;-80
2022/06/22 02:44:29;;;;;;;12.95;5.40;;;10.30;99.90;;;;;;5054624;28;20052;-82
2022/06/22 02:47:03;;;;;;;11.07;4.80;;;11.00;99.90;;;;;;5065539;28;20395;-77
2022/06/22 02:49:35;;;;;;;8.35;4.20;;;10.30;99.90;;;;;;5070299;28;20040;-76
2022/06/22 02:52:03;;;;;;;5.93;4.13;;;10.30;99.90;;;;;;5055578;28;20364;-79
2022/06/22 02:54:35;;;;;;;6.55;3.97;;;10.20;99.90;;;;;;5039503;28;20513;-79
2022/06/22 02:57:12;;;;;;;4.60;3.78;;;10.20;99.90;;;;;;5073080;28;20097;-80
2022/06/22 02:59:38;;;;;;;3.90;3.50;;;10.20;99.90;;;;;;5049044;28;20036;-79
2022/06/22 03:02:05;;;;;;;6.75;3.90;;;10.20;99.90;;;;;;5091700;28;20040;-78
2022/06/22 03:04:32;;;;;;;4.35;3.90;;;10.10;99.90;;;;;;5034496;28;20041;-80
2022/06/22 03:06:59;;;;;;;4.75;3.80;;;10.00;99.90;;;;;;5034556;28;20037;-81
2022/06/22 03:09:27;;;;;;;10.65;5.40;;;10.40;99.90;;;;;;5035286;28;20037;-80
2022/06/22 03:11:58;;;;;;;6.47;5.80;;;10.00;99.90;;;;;;5037628;28;20121;-80
2022/06/22 03:14:56;;;;;;;4.93;4.43;;;9.80;99.90;;;;;;5038022;28;20052;-80
2022/06/22 03:17:33;;;;;;;4.78;4.30;;;9.70;99.90;;;;;;5054799;28;20040;-80
2022/06/22 03:20:03;;;;;;;3.80;3.47;;;9.70;99.90;;;;;;5054391;28;20040;-81
2022/06/22 03:22:43;;;;;;;4.57;3.85;;;9.60;99.90;;;;;;5071062;28;20356;-79
2022/06/22 03:25:35;;;;;;;5.50;3.85;;;9.60;99.90;;;;;;5072100;28;20059;-81
2022/06/22 03:28:17;;;;;;;6.15;3.65;;;9.70;99.90;;;;;;5054337;28;20067;-80
2022/06/22 03:30:52;;;;;;;4.07;3.67;;;9.70;99.90;;;;;;5054191;28;20052;-80
2022/06/22 03:33:40;;;;;;;6.47;4.30;;;9.70;99.90;;;;;;5072376;28;20242;-81
2022/06/22 03:36:20;;;;;;;5.93;4.40;;;9.70;99.90;;;;;;5072501;28;20395;-79
2022/06/22 03:39:01;;;;;;;6.47;3.80;;;10.40;99.90;;;;;;5049366;28;20467;-80
2022/06/22 03:41:33;;;;;;;5.80;3.83;;;9.80;99.90;;;;;;5059390;28;20155;-79
2022/06/22 03:44:13;;;;;;;4.90;3.72;;;9.90;99.90;;;;;;5072638;28;20052;-79
2022/06/22 03:46:50;;;;;;;5.82;3.50;;;10.70;99.90;;;;;;5037939;28;20052;-80
2022/06/22 03:49:30;;;;;;;3.95;3.30;;;9.90;99.90;;;;;;5054356;28;20101;-81
2022/06/22 03:52:26;;;;;;;3.30;3.00;;;10.80;99.90;;;;;;5037431;28;20511;-81
2022/06/22 03:55:19;;;;;;;3.70;3.40;;;10.00;99.90;;;;;;5053910;28;20048;-80
2022/06/22 03:57:49;;;;;;;5.25;3.30;;;10.10;99.90;;;;;;5054831;28;20131;-80
2022/06/22 04:00:16;;;;;;;3.40;3.10;;;10.80;99.90;;;;;;5056988;28;20507;-80
2022/06/22 04:02:43;;;;;;;4.05;3.35;;;10.30;99.90;;;;;;5057767;28;20037;-81
2022/06/22 04:05:22;;;;;;;4.47;3.33;;;10.30;99.90;;;;;;5040754;28;20173;-80
2022/06/22 04:07:50;;;;;;;3.92;3.45;;;10.50;99.90;;;;;;5076255;28;20051;-81
2022/06/22 04:10:37;;;;;;;6.13;3.60;;;10.40;99.90;;;;;;5045866;28;20036;-76
2022/06/22 04:13:09;;;;;;;7.30;4.22;;;10.50;99.90;;;;;;5072235;28;20487;-76
2022/06/22 04:15:59;;;;;;;5.68;4.88;;;10.60;99.90;;;;;;5086985;28;20037;-77
2022/06/22 04:18:31;;;;;;;6.22;5.13;;;10.80;99.90;;;;;;5058340;28;20123;-79
2022/06/22 04:21:06;;;;;;;9.02;6.00;;;11.10;99.90;;;;;;5041250;28;20055;-80
2022/06/22 04:24:11;;;;;;;8.80;5.60;;;11.00;99.90;;;;;;5074438;28;20047;-81
2022/06/22 04:26:57;;;;;;;7.25;5.63;;;11.90;99.90;;;;;;5058297;28;20482;-80
2022/06/22 04:30:01;;;;;;;8.23;5.97;;;12.20;99.90;;;;;;5062181;28;20518;-80
2022/06/22 04:32:47;;;;;;;8.98;7.15;;;12.40;99.90;;;;;;5077959;28;20104;-81
2022/06/22 04:35:31;;;;;;;14.40;9.88;;;12.60;99.90;;;;;;5060401;28;20399;-81
2022/06/22 04:38:09;;;;;;;18.67;10.10;;;13.30;99.90;;;;;;5095832;28;20050;-81
2022/06/22 04:40:48;;;;;;;17.20;9.38;;;13.90;99.90;;;;;;5095593;28;20062;-81
2022/06/22 04:47:35;;;;;;;15.68;10.18;;;14.90;99.90;;;;;;5095415;28;20039;-81
2022/06/22 04:50:06;;;;;;;16.83;11.03;;;15.30;99.90;;;;;;5000116;28;20492;-80
2022/06/22 04:52:38;;;;;;;18.83;11.50;;;15.90;99.90;;;;;;4996931;28;20065;-79
2022/06/22 04:55:05;;;;;;;14.88;11.30;;;16.40;99.90;;;;;;4996628;28;20051;-80
2022/06/22 04:57:37;;;;;;;19.08;12.82;;;16.60;99.90;;;;;;4996813;28;20042;-81
2022/06/22 05:00:22;;;;;;;17.13;12.65;;;16.90;99.90;;;;;;4996984;28;20111;-81
2022/06/22 05:02:54;;;;;;;25.13;12.70;;;17.10;99.90;;;;;;5004272;28;20118;-81
2022/06/22 05:05:24;;;;;;;18.17;12.38;;;16.20;99.90;;;;;;5008190;28;20061;-81
2022/06/22 05:08:17;;;;;;;21.80;12.88;;;15.50;99.90;;;;;;4996527;28;20066;-80
2022/06/22 05:10:46;;;;;;;22.17;13.13;;;15.10;99.90;;;;;;4996567;28;20057;-80
2022/06/22 05:13:19;;;;;;;20.50;12.98;;;14.80;99.90;;;;;;4996429;28;20335;-80
2022/06/22 05:15:48;;;;;;;19.05;12.63;;;14.60;99.90;;;;;;5012788;28;20485;-82
2022/06/22 05:18:50;;;;;;;17.20;12.10;;;14.50;99.90;;;;;;4996631;28;20338;-81
2022/06/22 05:21:38;;;;;;;19.33;12.38;;;14.50;99.90;;;;;;4944050;28;20145;-81
2022/06/22 05:24:13;;;;;;;19.08;11.85;;;14.60;99.90;;;;;;4992672;28;20047;-80
2022/06/22 05:26:40;;;;;;;14.60;11.27;;;14.40;99.90;;;;;;4993059;28;20161;-82
2022/06/22 05:29:14;;;;;;;19.00;12.13;;;14.40;99.90;;;;;;5008168;28;20450;-81
2022/06/22 05:31:44;;;;;;;22.58;12.02;;;14.40;99.90;;;;;;4978829;28;20442;-81
2022/06/22 05:34:19;;;;;;;20.73;12.88;;;14.30;99.90;;;;;;4961240;28;20410;-80
2022/06/22 05:36:49;;;;;;;22.90;13.52;;;14.30;99.90;;;;;;4975041;28;20106;-79
2022/06/22 05:39:15;;;;;;;21.40;12.75;;;14.30;99.90;;;;;;4973317;28;20031;-80
2022/06/22 05:41:45;;;;;;;21.90;12.80;;;14.20;99.90;;;;;;4956581;28;20466;-81
2022/06/22 05:44:13;;;;;;;19.60;12.45;;;14.30;99.90;;;;;;4956620;28;20154;-80
2022/06/22 05:46:52;;;;;;;21.63;12.82;;;14.40;99.90;;;;;;4972875;28;20057;-79
2022/06/22 05:49:19;;;;;;;17.40;12.02;;;14.50;99.90;;;;;;4940251;28;20352;-81
2022/06/22 05:51:51;;;;;;;18.55;11.95;;;14.40;99.90;;;;;;4956752;28;20082;-81
2022/06/22 05:54:40;;;;;;;18.48;11.63;;;14.50;99.90;;;;;;4969220;28;20103;-81
2022/06/22 05:57:45;;;;;;;21.08;12.20;;;14.60;99.90;;;;;;5073671;28;20045;-81
2022/06/22 06:00:45;;;;;;;20.40;11.90;;;14.70;99.90;;;;;;5060335;28;20056;-81
2022/06/22 06:03:19;;;;;;;18.25;11.43;;;14.80;99.90;;;;;;5022356;28;20195;-81
2022/06/22 06:05:49;;;;;;;19.50;11.02;;;14.80;99.90;;;;;;4994916;28;20056;-80
2022/06/22 06:08:30;;;;;;;14.95;8.82;;;14.90;99.90;;;;;;4995033;28;20474;-80
2022/06/22 06:10:57;;;;;;;19.75;8.70;;;14.90;99.90;;;;;;5011209;28;20073;-81
2022/06/22 06:13:39;;;;;;;13.77;6.55;;;15.00;99.90;;;;;;5011394;28;20479;-81
2022/06/22 06:16:46;;;;;;;10.63;4.80;;;15.10;99.90;;;;;;4995146;28;20144;-80
2022/06/22 06:19:18;;;;;;;13.77;5.53;;;15.20;99.90;;;;;;4937142;29;20520;-82
2022/06/22 06:21:44;;;;;;;14.57;6.05;;;15.30;99.90;;;;;;4935932;29;20041;-82
2022/06/22 06:24:22;;;;;;;12.32;5.90;;;15.30;99.90;;;;;;4921595;29;20482;-83
2022/06/22 06:29:56;;;;;;;19.98;6.20;;;15.40;99.90;;;;;;4942469;29;20040;-82
2022/06/22 06:33:12;;;;;;;12.45;5.28;;;15.50;99.90;;;;;;4926672;29;20055;-80
2022/06/22 06:36:28;;;;;;;13.20;5.55;;;15.60;99.90;;;;;;4895629;29;20067;-81
2022/06/22 06:39:00;;;;;;;13.82;6.07;;;15.60;99.90;;;;;;4877053;29;20515;-81
2022/06/22 06:41:46;;;;;;;14.30;6.07;;;15.70;99.90;;;;;;4952697;28;20131;-81
2022/06/22 06:44:21;;;;;;;11.90;5.45;;;15.80;99.90;;;;;;4953459;29;20047;-81
2022/06/22 06:46:51;;;;;;;;;;;15.80;99.90;;;;;;4922539;29;20130;-81
2022/06/22 06:49:41;;;;;;;12.63;5.10;;;15.90;99.90;;;;;;4921018;29;19919;-82
2022/06/22 06:52:26;;;;;;;10.80;4.82;;;15.90;99.90;;;;;;4953483;29;20054;-82
2022/06/22 06:55:29;;;;;;;12.93;5.03;;;16.00;99.90;;;;;;4952811;28;20069;-82
2022/06/22 07:01:22;;;;;;;12.20;4.65;;;16.10;99.90;;;;;;4991845;28;20510;-79
2022/06/22 07:03:51;;;;;;;16.42;5.18;;;16.20;99.90;;;;;;5007532;28;20042;-82
2022/06/22 07:06:17;;;;;;;14.85;5.00;;;16.30;99.90;;;;;;4979877;28;20045;-81
2022/06/22 07:08:51;;;;;;;16.75;4.55;;;16.40;99.90;;;;;;5002505;28;20059;-80
2022/06/22 07:11:31;;;;;;;11.25;4.43;;;16.40;99.90;;;;;;5050116;28;20463;-82
2022/06/22 07:14:19;;;;;;;9.70;3.88;;;16.40;99.90;;;;;;5033353;28;20476;-81
2022/06/22 07:16:47;;;;;;;11.60;4.13;;;16.50;99.90;;;;;;5049521;28;20053;-80
2022/06/22 07:19:28;;;;;;;10.20;4.15;;;16.70;99.90;;;;;;5085383;28;20044;-80
2022/06/22 07:22:01;;;;;;;10.20;3.55;;;16.70;99.90;;;;;;5089387;28;20044;-81
2022/06/22 07:24:45;;;;;;;10.15;3.33;;;16.80;99.90;;;;;;5072779;28;20047;-81
2022/06/22 07:27:38;;;;;;;9.85;3.92;;;16.80;99.90;;;;;;5072823;28;20059;-80
2022/06/22 07:30:23;;;;;;;11.10;3.78;;;17.00;99.90;;;;;;5055960;28;20111;-80
2022/06/22 07:32:57;;;;;;;9.40;3.75;;;16.90;99.90;;;;;;5072650;28;20120;-81
2022/06/22 07:35:39;;;;;;;9.23;3.33;;;16.90;99.90;;;;;;5090599;28;20035;-82
2022/06/22 07:38:22;;;;;;;9.55;3.30;;;16.90;99.90;;;;;;5073161;28;20058;-82
2022/06/22 07:43:33;;;;;;;;;;;17.10;99.90;;;;;;5089841;28;20040;-81
2022/06/22 07:45:59;;;;;;;10.10;3.35;;;17.20;99.90;;;;;;5070050;28;20371;-80
2022/06/22 07:48:26;;;;;;;10.88;3.08;;;17.20;99.90;;;;;;5073211;28;20509;-81
2022/06/22 07:50:58;;;;;;;8.20;3.20;;;17.30;99.90;;;;;;5073646;28;20043;-81
2022/06/22 07:53:29;;;;;;;7.43;2.78;;;17.20;99.90;;;;;;5073278;28;20126;-82
2022/06/22 07:56:23;;;;;;;11.95;3.35;;;17.30;99.90;;;;;;5077475;28;20039;-81
2022/06/22 07:58:54;;;;;;;9.13;3.55;;;17.30;99.90;;;;;;5084918;28;20055;-81
2022/06/22 08:01:25;;;;;;;14.18;3.67;;;17.30;99.90;;;;;;5077551;28;20090;-82
2022/06/22 08:03:58;;;;;;;8.68;3.60;;;17.50;99.90;;;;;;5090806;28;20038;-80
2022/06/22 08:06:33;;;;;;;11.95;3.63;;;17.50;99.90;;;;;;5072576;28;20043;-81
2022/06/22 08:09:06;;;;;;;9.23;3.83;;;17.60;99.90;;;;;;5091408;28;20036;-81
2022/06/22 08:11:34;;;;;;;8.75;3.40;;;17.60;99.90;;;;;;5073251;28;20126;-81
2022/06/22 08:14:18;;;;;;;9.18;3.80;;;17.70;99.90;;;;;;5073835;28;20075;-80
2022/06/22 08:16:54;;;;;;;9.50;4.32;;;17.80;99.90;;;;;;5091450;28;20091;-81
2022/06/22 08:19:25;;;;;;;11.68;4.90;;;17.90;99.90;;;;;;5073123;28;20170;-80
2022/06/22 08:21:53;;;;;;;12.95;4.32;;;17.90;99.90;;;;;;5056036;28;20040;-80
2022/06/22 08:24:20;;;;;;;9.10;4.30;;;18.10;99.90;;;;;;5072867;28;20085;-80
2022/06/22 08:26:49;;;;;;;9.75;4.22;;;18.10;99.90;;;;;;5073459;28;20115;-80
2022/06/22 08:29:18;;;;;;;10.88;4.57;;;18.20;99.90;;;;;;5074123;28;20498;-82
2022/06/22 08:31:54;;;;;;;10.85;4.68;;;18.40;99.90;;;;;;5091292;28;20048;-80
2022/06/22 08:34:32;;;;;;;13.95;5.22;;;18.40;99.90;;;;;;5073355;28;20059;-80
2022/06/22 08:37:06;;;;;;;14.77;5.50;;;18.40;99.90;;;;;;5090778;28;20044;-81
2022/06/22 08:39:48;;;;;;;11.35;5.50;;;18.50;99.90;;;;;;5069409;28;20044;-81
2022/06/22 08:42:23;;;;;;;10.25;5.30;;;18.50;99.90;;;;;;5091131;28;20474;-81
2022/06/22 08:45:10;;;;;;;12.45;5.57;;;18.60;99.90;;;;;;5091585;28;20036;-81
2022/06/22 08:47:47;;;;;;;13.10;5.25;;;18.70;99.90;;;;;;5077143;28;20110;-81
2022/06/22 08:50:41;;;;;;;10.63;5.13;;;18.80;99.90;;;;;;5076151;28;20051;-82
2022/06/22 08:53:45;;;;;;;9.48;4.40;;;18.90;99.90;;;;;;5076116;28;20494;-80
2022/06/22 08:56:40;;;;;;;12.00;4.40;;;19.00;99.90;;;;;;5076463;28;20479;-81
2022/06/22 08:59:27;;;;;;;11.93;5.03;;;19.00;99.90;;;;;;5076697;28;20044;-81
2022/06/22 09:02:17;;;;;;;12.77;4.30;;;19.10;99.90;;;;;;5059905;28;20208;-81
2022/06/22 09:04:56;;;;;;;9.07;4.40;;;19.20;99.90;;;;;;5076270;28;20052;-83
2022/06/22 09:07:59;;;;;;;16.40;4.70;;;19.10;99.90;;;;;;5076331;28;20036;-81
2022/06/22 09:10:35;;;;;;;14.20;5.13;;;19.40;99.90;;;;;;5094171;28;20416;-81
2022/06/22 09:13:38;;;;;;;12.70;4.70;;;19.40;99.90;;;;;;5059198;28;20093;-81
2022/06/22 09:16:17;;;;;;;10.23;4.50;;;19.40;99.90;;;;;;5075997;28;20051;-79
2022/06/22 09:19:10;;;;;;;8.40;4.03;;;19.50;99.90;;;;;;5060143;28;20101;-79
2022/06/22 09:22:06;;;;;;;10.95;4.43;;;19.60;99.90;;;;;;5075512;28;20035;-79
2022/06/22 09:24:59;;;;;;;11.70;3.55;;;19.60;99.90;;;;;;5083869;28;20169;-81
2022/06/22 09:27:38;;;;;;;10.07;3.80;;;19.80;99.90;;;;;;5098333;28;20036;-81
2022/06/22 09:30:10;;;;;;;13.30;4.00;;;19.80;99.90;;;;;;5077406;28;20048;-81
2022/06/22 09:33:08;;;;;;;13.68;3.22;;;19.80;99.90;;;;;;5076316;28;20074;-81
2022/06/22 09:35:59;;;;;;;14.82;3.67;;;19.90;99.90;;;;;;5075533;28;20051;-81
2022/06/22 09:39:01;;;;;;;11.27;3.45;;;20.10;99.90;;;;;;5039172;28;20051;-80
2022/06/22 09:41:46;;;;;;;11.57;3.42;;;20.20;99.90;;;;;;5070625;28;20044;-81
2022/06/22 09:44:41;;;;;;;11.10;3.80;;;20.50;99.90;;;;;;5093060;28;20127;-81
2022/06/22 09:47:16;;;;;;;10.15;4.10;;;20.60;99.90;;;;;;5058728;28;20088;-81
2022/06/22 09:50:03;;;;;;;;;;;20.60;99.90;;;;;;5059108;28;20406;-80
2022/06/22 09:52:32;;;;;;;12.88;3.83;;;20.70;99.90;;;;;;5059015;28;19927;-79
2022/06/22 09:58:43;;;;;;;9.48;3.50;;;20.70;99.90;;;;;;5092509;28;20055;-81
2022/06/22 10:01:33;;;;;;;7.72;3.40;;;20.80;99.90;;;;;;5058397;28;20482;-81
2022/06/22 10:04:46;;;;;;;12.80;3.58;;;21.00;99.90;;;;;;5040202;28;20045;-81
2022/06/22 10:07:33;;;;;;;10.32;3.85;;;21.20;99.90;;;;;;5021884;28;20045;-81
2022/06/22 10:10:43;;;;;;;6.60;3.70;;;21.50;99.90;;;;;;4997772;28;20053;-82
2022/06/22 10:13:32;;;;;;;8.35;3.65;;;21.40;99.90;;;;;;4933770;29;20047;-82
2022/06/22 10:16:01;;;;;;;8.63;3.92;;;21.40;99.90;;;;;;4933417;29;20091;-81
2022/06/22 10:18:45;;;;;;;8.77;3.80;;;21.30;99.90;;;;;;4917516;29;20139;-82
2022/06/22 10:21:16;;;;;;;11.98;3.67;;;21.40;99.90;;;;;;4916991;29;20051;-81
2022/06/22 10:24:06;;;;;;;12.05;4.68;;;21.40;99.90;;;;;;4901819;29;20061;-81
2022/06/22 10:26:41;;;;;;;9.63;4.10;;;21.40;99.90;;;;;;4933250;29;20443;-81
2022/06/22 10:29:25;;;;;;;;;;;21.70;99.90;;;;;;4925553;29;20548;-81
2022/06/22 10:31:57;;;;;;;10.45;4.40;;;21.60;99.90;;;;;;4901437;29;19919;-81
2022/06/22 10:34:29;;;;;;;10.48;5.32;;;21.90;99.90;;;;;;4916856;29;20226;-81
2022/06/22 10:37:35;;;;;;;11.57;4.75;;;21.80;99.90;;;;;;4916763;29;20044;-81
2022/06/22 10:46:59;;;;;;;14.65;4.75;;;22.20;99.90;;;;;;5073440;28;20232;-81
2022/06/22 10:49:41;;;;;;;11.60;4.50;;;22.50;99.90;;;;;;5077292;28;20044;-82
2022/06/22 10:52:19;;;;;;;15.02;4.93;;;23.00;99.90;;;;;;5063985;28;20100;-81
2022/06/22 10:54:49;;;;;;;11.98;4.78;;;23.30;99.90;;;;;;5055100;28;20047;-83
2022/06/22 10:57:20;;;;;;;11.75;4.72;;;23.00;99.90;;;;;;5054767;28;20094;-80
2022/06/22 11:00:17;;;;;;;15.45;5.20;;;22.70;99.90;;;;;;5070560;28;20072;-82
2022/06/22 11:03:02;;;;;;;15.52;5.57;;;22.80;99.90;;;;;;5042474;28;20036;-81
2022/06/22 11:05:52;;;;;;;12.25;4.82;;;22.80;99.90;;;;;;5073737;28;20040;-81
2022/06/22 11:08:48;;;;;;;15.32;4.65;;;22.80;99.90;;;;;;5090271;28;20217;-82
2022/06/22 11:11:28;;;;;;;11.30;4.55;;;23.20;99.90;;;;;;5073826;28;20122;-82
2022/06/22 11:14:12;;;;;;;9.68;4.60;;;23.60;99.90;;;;;;5074185;28;20044;-80
2022/06/22 11:16:56;;;;;;;9.90;4.70;;;23.30;99.90;;;;;;5088255;28;20125;-80
2022/06/22 11:19:41;;;;;;;13.23;5.17;;;23.10;99.90;;;;;;5057628;28;20429;-80
2022/06/22 11:22:32;;;;;;;12.70;4.72;;;23.40;99.90;;;;;;5073427;28;20316;-81
2022/06/22 11:25:13;;;;;;;9.50;4.35;;;23.20;99.90;;;;;;5073711;28;20135;-82
2022/06/22 11:31:02;;;;;;;15.93;4.53;;;23.50;99.90;;;;;;5054327;28;20052;-82
2022/06/22 11:33:53;;;;;;;10.98;4.13;;;23.40;99.90;;;;;;5073156;28;20197;-82
2022/06/22 11:36:47;;;;;;;10.57;4.00;;;23.80;99.90;;;;;;5056079;28;20040;-82
2022/06/22 11:39:54;;;;;;;11.63;4.43;;;23.80;99.90;;;;;;5073554;28;20044;-81
2022/06/22 11:42:24;;;;;;;9.50;4.43;;;23.60;99.90;;;;;;4992609;28;20054;-80
2022/06/22 11:48:28;;;;;;;9.55;4.60;;;23.40;99.90;;;;;;5009469;28;20168;-81
2022/06/22 11:51:02;;;;;;;10.63;4.32;;;23.40;99.90;;;;;;4992462;28;20068;-82
2022/06/22 11:53:51;;;;;;;11.27;4.05;;;23.30;99.90;;;;;;4992882;28;20137;-82
2022/06/22 11:56:40;;;;;;;10.95;4.38;;;23.70;99.90;;;;;;4992800;28;20196;-82
2022/06/22 11:59:39;;;;;;;11.70;3.70;;;23.50;99.90;;;;;;5008981;28;20045;-82
2022/06/22 12:02:10;;;;;;;10.05;4.40;;;24.10;99.90;;;;;;5009580;28;20042;-82
2022/06/22 12:05:04;;;;;;;11.18;4.25;;;24.20;99.90;;;;;;4992533;28;20050;-83
2022/06/22 12:07:54;;;;;;;12.47;4.13;;;24.30;99.90;;;;;;5009241;28;20065;-82
2022/06/22 12:10:40;;;;;;;9.35;3.67;;;24.30;99.90;;;;;;4993973;28;20324;-82
2022/06/22 12:13:11;;;;;;;9.55;4.13;;;24.60;99.90;;;;;;5017322;28;20127;-81
2022/06/22 12:16:19;;;;;;;10.25;4.00;;;24.30;99.90;;;;;;5032609;28;20042;-81
2022/06/22 12:18:57;;;;;;;13.13;4.40;;;24.40;99.90;;;;;;5014162;28;20110;-82
2022/06/22 12:21:44;;;;;;;8.43;3.33;;;24.50;99.90;;;;;;5068978;28;20467;-81
2022/06/22 12:24:28;;;;;;;10.23;4.18;;;24.80;99.90;;;;;;5061015;28;20505;-82
2022/06/22 12:27:19;;;;;;;13.23;4.25;;;24.30;99.90;;;;;;5060500;28;20158;-82
2022/06/22 12:30:03;;;;;;;8.32;3.90;;;24.70;99.90;;;;;;5060767;28;20044;-82
2022/06/22 12:32:49;;;;;;;8.57;3.72;;;25.50;99.90;;;;;;5060603;28;20190;-82
2022/06/22 12:35:36;;;;;;;12.88;4.50;;;26.00;99.90;;;;;;5076947;28;20096;-82
2022/06/22 12:38:24;;;;;;;8.02;3.70;;;25.60;99.70;;;;;;5061516;28;20325;-80
2022/06/22 12:41:01;;;;;;;9.50;3.67;;;25.70;99.60;;;;;;5078851;28;20035;-80
2022/06/22 12:44:21;;;;;;;9.38;3.67;;;25.30;99.80;;;;;;5077782;28;20471;-82
2022/06/22 12:46:59;;;;;;;8.15;3.80;;;25.20;99.70;;;;;;4993336;28;20089;-81
2022/06/22 12:49:52;;;;;;;15.52;4.25;;;25.10;99.70;;;;;;4976565;28;20057;-82
2022/06/22 12:52:56;;;;;;;12.98;3.78;;;25.00;99.90;;;;;;4992968;28;20050;-83
2022/06/22 12:55:31;;;;;;;9.23;3.38;;;25.50;99.90;;;;;;4970462;28;20090;-82
2022/06/22 12:58:11;;;;;;;8.25;3.42;;;25.60;99.90;;;;;;4973715;28;20070;-82
2022/06/22 13:00:39;;;;;;;9.93;3.40;;;25.50;99.90;;;;;;4957731;28;20062;-82
2022/06/22 13:03:05;;;;;;;11.70;4.30;;;25.80;99.90;;;;;;4984333;28;20459;-81
2022/06/22 13:05:34;;;;;;;8.93;3.47;;;26.10;99.50;;;;;;4993092;28;20050;-83
2022/06/22 13:08:04;;;;;;;9.43;3.50;;;25.80;99.70;;;;;;4976350;28;20401;-83
2022/06/22 13:10:35;;;;;;;8.60;3.70;;;26.10;99.70;;;;;;4992650;28;20141;-82
2022/06/22 13:13:08;;;;;;;10.98;3.97;;;25.90;99.50;;;;;;4976686;28;20155;-82
2022/06/22 13:15:40;;;;;;;12.15;3.88;;;25.80;99.50;;;;;;4992743;28;20038;-82
2022/06/22 13:18:24;;;;;;;9.80;3.83;;;25.80;99.60;;;;;;4985366;28;20077;-83
2022/06/22 13:20:58;;;;;;;;;;;26.10;99.70;;;;;;4995295;28;20650;-82
2022/06/22 13:23:39;;;;;;;8.45;3.63;;;26.30;99.60;;;;;;5053119;28;20251;-82
2022/06/22 13:26:30;;;;;;;11.40;3.90;;;26.10;98.70;;;;;;5076661;28;20044;-83
2022/06/22 13:29:11;;;;;;;12.00;3.72;;;26.30;99.00;;;;;;5044863;28;20117;-82
2022/06/22 13:31:42;;;;;;;10.73;3.92;;;26.60;98.90;;;;;;5074711;28;20048;-82
2022/06/22 13:34:37;;;;;;;10.15;4.20;;;26.50;99.20;;;;;;5061935;28;20067;-82
2022/06/22 13:37:11;;;;;;;8.10;4.20;;;26.50;99.30;;;;;;5102728;28;20056;-82
2022/06/22 13:39:50;;;;;;;7.65;4.43;;;25.70;99.80;;;;;;5105975;28;20040;-82
2022/06/22 13:42:45;;;;;;;11.35;4.75;;;25.40;99.90;;;;;;5097618;28;20075;-83
2022/06/22 13:45:44;;;;;;;11.05;4.63;;;25.40;99.90;;;;;;5093282;28;20079;-82
2022/06/22 13:48:21;;;;;;;10.43;4.60;;;25.70;99.90;;;;;;5092786;28;20047;-82
2022/06/22 13:51:14;;;;;;;8.98;4.90;;;26.20;99.90;;;;;;5075577;28;20040;-82
2022/06/22 13:54:04;;;;;;;10.95;4.95;;;25.90;99.90;;;;;;5039492;28;20048;-82
2022/06/22 13:56:54;;;;;;;10.73;5.22;;;26.00;99.90;;;;;;5055258;28;20501;-82
2022/06/22 14:00:13;;;;;;;12.70;5.00;;;25.40;99.90;;;;;;5066007;28;20089;-82
2022/06/22 14:02:51;;;;;;;11.23;5.10;;;25.80;99.90;;;;;;5075594;28;20048;-81
2022/06/22 14:05:47;;;;;;;11.18;4.57;;;25.70;99.90;;;;;;5058898;28;20126;-81
2022/06/22 14:08:27;;;;;;;11.48;5.38;;;25.70;99.90;;;;;;5092104;28;20129;-80
2022/06/22 14:11:03;;;;;;;10.70;5.03;;;25.70;99.90;;;;;;5075722;28;20192;-83
2022/06/22 14:14:05;;;;;;;11.60;4.65;;;25.40;99.90;;;;;;5075106;28;20040;-82
2022/06/22 14:16:43;;;;;;;12.13;5.28;;;25.50;99.90;;;;;;5075120;28;20040;-82
2022/06/22 14:19:14;;;;;;;11.00;5.22;;;25.70;99.90;;;;;;5058699;28;20331;-83
2022/06/22 14:21:53;;;;;;;12.43;5.18;;;25.30;99.90;;;;;;5092395;28;20032;-81
2022/06/22 14:24:33;;;;;;;11.20;4.72;;;25.40;99.90;;;;;;5058095;28;20040;-83
2022/06/22 14:27:29;;;;;;;10.90;4.07;;;25.30;99.90;;;;;;5093109;28;20158;-83